Urakawa, Japan

8:05 PM JST on September 02, 2015 (GMT +0900)
Obihiro | | Change Station
CLOSE
Current Station
Airport
Location: Obihiro,
Elevation: 489 ft
Nearby Weather Stations

Elev 489 ft 42.73 °N, 143.22 °E | Updated 5 minutes ago

Light Rain Showers
Light Showers Rain Mist
64 °F
Feels Like 64 °F
N
8
Wind Variable Wind from NNW

Today
High -- | Low -- °F
--% Chance of Precip.
Yesterday
High -- | Low -- °F
Precip. -- in
4:54 AM 6:02 PM
Waning Gibbous, 81% visible
Pressure 29.53 in
Visibility -9999.0 miles
Clouds Few 300 ft
Mostly Cloudy 500 ft
Mostly Cloudy 1000 ft
Dew Point 63 °F
Humidity 94%
Rainfall 0.00 in
Snow Depth Not available.
UV 0 out of 12
Pollen Not available.
Air Quality Not available.
Flu Activity Not available.
METAR RJCB 021100Z 33007KT 3100 -SHRA BR FEW003 BKN005 BKN010 18/17 Q1000
Pressure 29.53 in
Visibility -9999.0 miles
Clouds Few 300 ft
Mostly Cloudy 500 ft
Mostly Cloudy 1000 ft
Dew Point 63 °F
Humidity 94%
Rainfall 0.00 in
Snow Depth Not available.
UV 0 out of 12
Pollen Not available.
Air Quality Not available.
Flu Activity Not available.
METAR RJCB 021100Z 33007KT 3100 -SHRA BR FEW003 BKN005 BKN010 18/17 Q1000

10-Day Weather Forecast

×

Almanac

Astronomy

Sep. 02, 2015 Rise Set
Actual Time
Civil Twilight
Nautical Twilight
Astronomical Twilight
Moon
Length of Visible Light
Length of Day
Tomorrow will be .
, % of the Moon is Illuminated

Today's Extremes

Country Highs Country Lows

Community

WunderPhotos

Upload Photos

1,851,731 photos uploaded!

WunderBlogs® & News

Nearby

Air Quality

  Air Quality AQ Index Pollutant
Not available.

Snow Depth

Station Depth Elevation

Earthquake Activity

City Distance Mag. Time & Date
Minimum magnitude displayed is 2.5.

Coastal Water Temperatures

Place Temperature

Stations

Nearby Weather Stations

Station Location Temp. Windchill Dew Point Humidity Wind Precip. Elev Updated Type